This is the latest recevied weather packets stored in our database for station/object GW1497. If no packets are shown the sender has not sent any weather packets the latest 10 day(s).
| Time | Temp. | Humidity | Pressure | Rain* | Wind** | Luminosity | Snow |
|---|---|---|---|---|---|---|---|
| 1778212998 | 8.33° C | 60% | 1016.5 hPa | 0 mm | - | - | - |
| 1778211926 | 8.89° C | 60% | 1016.5 hPa | 0 mm | - | - | - |
| 1778211201 | 8.89° C | 58% | 1016.5 hPa | 0 mm | - | - | - |
| 1778207621 | 10° C | 56% | 1016.2 hPa | 0 mm | - | - | - |
| 1778206515 | 10° C | 55% | 1015.9 hPa | 0 mm | - | - | - |
| 1778203645 | 11.11° C | 51% | 1015.5 hPa | 0 mm | - | - | - |
| 1778200420 | 12.22° C | 44% | 1015.2 hPa | 0 mm | - | - | - |
| 1778199671 | 12.78° C | 43% | 1014.9 hPa | 0 mm | - | - | - |
| 1778198990 | 12.78° C | 42% | 1014.5 hPa | 0 mm | - | - | - |
| 1778196827 | 14.44° C | 40% | 1014.5 hPa | 0 mm | - | - | - |
| 1778194280 | 15.56° C | 38% | 1013.8 hPa | 0 mm | - | - | - |
| 1778193927 | 15.56° C | 36% | 1013.8 hPa | 0 mm | - | - | - |
| 1778193558 | 15.56° C | 41% | 1013.8 hPa | 0 mm | - | - | - |
| 1778192839 | 15.56° C | 37% | 1013.8 hPa | 0 mm | - | - | - |
| 1778185312 | 16.67° C | 38% | 1012.8 hPa | 0 mm | - | - | - |
| 1778182052 | 15° C | 45% | 1013.8 hPa | 0 mm | - | - | - |
| 1778174852 | 14.44° C | 52% | 1014.5 hPa | 0 mm | - | - | - |
| 1778173752 | 15° C | 45% | 1014.5 hPa | 0 mm | - | - | - |
| 1778172695 | 14.44° C | 52% | 1014.5 hPa | 0 mm | - | - | - |
| 1778156868 | 10° C | 80% | 1016.2 hPa | 0 mm | - | - | - |
| 1778156487 | 10° C | 84% | 1016.2 hPa | 0 mm | - | - | - |
| 1778153606 | 7.22° C | 98% | 1016.2 hPa | 0 mm | - | - | - |
| 1778152513 | 6.67° C | 99% | 1015.9 hPa | 0 mm | - | - | - |
| 1778148212 | 6.67° C | 95% | 1015.2 hPa | 0 mm | - | - | - |
| 1778146424 | 7.78° C | 87% | 1015.2 hPa | 0 mm | - | - | - |
* Rain since midnight (hover to see other rain measurements)
** Current wind speed in m/s (hover to see current wind gust speed)